sensor_id;sensor_type;location;lat;lon;timestamp;P1;durP1;ratioP1;P2;durP2;ratioP2
81396;SDS011;70852;49.908;8.126;2024-01-06T00:02:05;5.13;;;1.58;;
81396;SDS011;70852;49.908;8.126;2024-01-06T00:04:30;4.57;;;1.70;;
81396;SDS011;70852;49.908;8.126;2024-01-06T00:06:56;5.35;;;1.58;;
81396;SDS011;70852;49.908;8.126;2024-01-06T00:09:24;4.10;;;1.20;;
81396;SDS011;70852;49.908;8.126;2024-01-06T00:11:51;4.80;;;1.27;;
81396;SDS011;70852;49.908;8.126;2024-01-06T00:14:19;3.47;;;1.23;;
81396;SDS011;70852;49.908;8.126;2024-01-06T00:16:46;11.60;;;1.40;;
81396;SDS011;70852;49.908;8.126;2024-01-06T00:19:14;4.57;;;1.33;;
81396;SDS011;70852;49.908;8.126;2024-01-06T00:21:39;3.35;;;1.30;;
81396;SDS011;70852;49.908;8.126;2024-01-06T00:24:04;5.38;;;1.33;;
81396;SDS011;70852;49.908;8.126;2024-01-06T00:26:30;2.85;;;1.05;;
81396;SDS011;70852;49.908;8.126;2024-01-06T00:28:57;3.10;;;1.10;;
81396;SDS011;70852;49.908;8.126;2024-01-06T00:31:28;5.25;;;1.30;;
81396;SDS011;70852;49.908;8.126;2024-01-06T00:33:55;6.28;;;1.45;;
81396;SDS011;70852;49.908;8.126;2024-01-06T00:36:25;2.05;;;1.02;;
81396;SDS011;70852;49.908;8.126;2024-01-06T00:38:50;3.60;;;1.05;;
81396;SDS011;70852;49.908;8.126;2024-01-06T00:41:17;4.30;;;1.27;;
81396;SDS011;70852;49.908;8.126;2024-01-06T00:43:45;4.15;;;1.10;;
81396;SDS011;70852;49.908;8.126;2024-01-06T00:46:10;3.83;;;0.88;;
81396;SDS011;70852;49.908;8.126;2024-01-06T00:48:37;4.68;;;1.30;;
81396;SDS011;70852;49.908;8.126;2024-01-06T00:51:05;3.60;;;1.13;;
81396;SDS011;70852;49.908;8.126;2024-01-06T00:53:35;3.15;;;0.70;;
81396;SDS011;70852;49.908;8.126;2024-01-06T00:56:00;5.05;;;1.10;;
81396;SDS011;70852;49.908;8.126;2024-01-06T00:58:26;4.70;;;1.05;;
81396;SDS011;70852;49.908;8.126;2024-01-06T01:00:53;4.75;;;1.27;;
81396;SDS011;70852;49.908;8.126;2024-01-06T01:03:20;3.58;;;1.27;;
81396;SDS011;70852;49.908;8.126;2024-01-06T01:05:46;5.88;;;1.40;;
81396;SDS011;70852;49.908;8.126;2024-01-06T01:08:13;3.35;;;1.10;;
81396;SDS011;70852;49.908;8.126;2024-01-06T01:10:41;2.45;;;1.05;;
81396;SDS011;70852;49.908;8.126;2024-01-06T01:13:10;4.60;;;1.10;;
81396;SDS011;70852;49.908;8.126;2024-01-06T01:15:35;3.45;;;1.30;;
81396;SDS011;70852;49.908;8.126;2024-01-06T01:18:00;5.63;;;1.20;;
81396;SDS011;70852;49.908;8.126;2024-01-06T01:20:28;5.55;;;1.40;;
81396;SDS011;70852;49.908;8.126;2024-01-06T01:22:56;2.88;;;1.00;;
81396;SDS011;70852;49.908;8.126;2024-01-06T01:25:21;5.35;;;1.08;;
81396;SDS011;70852;49.908;8.126;2024-01-06T01:27:46;4.82;;;1.25;;
81396;SDS011;70852;49.908;8.126;2024-01-06T01:30:16;4.97;;;1.17;;
81396;SDS011;70852;49.908;8.126;2024-01-06T01:35:09;3.25;;;1.10;;
81396;SDS011;70852;49.908;8.126;2024-01-06T01:37:35;2.90;;;1.15;;
81396;SDS011;70852;49.908;8.126;2024-01-06T01:40:02;4.07;;;1.30;;
81396;SDS011;70852;49.908;8.126;2024-01-06T01:42:28;7.05;;;1.30;;
81396;SDS011;70852;49.908;8.126;2024-01-06T01:44:53;4.15;;;1.35;;
81396;SDS011;70852;49.908;8.126;2024-01-06T01:47:18;3.97;;;1.17;;
81396;SDS011;70852;49.908;8.126;2024-01-06T01:49:49;2.55;;;0.90;;
81396;SDS011;70852;49.908;8.126;2024-01-06T01:52:14;3.15;;;1.33;;
81396;SDS011;70852;49.908;8.126;2024-01-06T01:54:41;4.30;;;1.33;;
81396;SDS011;70852;49.908;8.126;2024-01-06T01:57:13;7.15;;;1.30;;
81396;SDS011;70852;49.908;8.126;2024-01-06T01:59:47;3.65;;;1.40;;
81396;SDS011;70852;49.908;8.126;2024-01-06T02:02:16;2.63;;;0.90;;
81396;SDS011;70852;49.908;8.126;2024-01-06T02:04:49;4.72;;;1.33;;
81396;SDS011;70852;49.908;8.126;2024-01-06T02:07:17;4.93;;;1.20;;
81396;SDS011;70852;49.908;8.126;2024-01-06T02:09:47;2.55;;;1.15;;
81396;SDS011;70852;49.908;8.126;2024-01-06T02:12:14;2.38;;;1.20;;
81396;SDS011;70852;49.908;8.126;2024-01-06T02:14:40;2.95;;;1.13;;
81396;SDS011;70852;49.908;8.126;2024-01-06T02:17:06;5.35;;;1.13;;
81396;SDS011;70852;49.908;8.126;2024-01-06T02:19:31;4.00;;;1.33;;
81396;SDS011;70852;49.908;8.126;2024-01-06T02:21:57;4.43;;;1.58;;
81396;SDS011;70852;49.908;8.126;2024-01-06T02:24:25;4.30;;;1.58;;
81396;SDS011;70852;49.908;8.126;2024-01-06T02:26:50;3.85;;;1.30;;
81396;SDS011;70852;49.908;8.126;2024-01-06T02:29:17;2.65;;;1.10;;
81396;SDS011;70852;49.908;8.126;2024-01-06T02:31:43;4.25;;;1.17;;
81396;SDS011;70852;49.908;8.126;2024-01-06T02:34:08;3.17;;;1.20;;
81396;SDS011;70852;49.908;8.126;2024-01-06T02:36:36;2.55;;;1.25;;
81396;SDS011;70852;49.908;8.126;2024-01-06T02:39:04;2.25;;;0.77;;
81396;SDS011;70852;49.908;8.126;2024-01-06T02:41:29;4.25;;;1.20;;
81396;SDS011;70852;49.908;8.126;2024-01-06T02:43:56;3.63;;;1.38;;
81396;SDS011;70852;49.908;8.126;2024-01-06T02:46:22;3.38;;;1.40;;
81396;SDS011;70852;49.908;8.126;2024-01-06T02:48:52;4.63;;;1.20;;
81396;SDS011;70852;49.908;8.126;2024-01-06T02:51:17;2.78;;;0.93;;
81396;SDS011;70852;49.908;8.126;2024-01-06T02:53:45;4.88;;;1.23;;
81396;SDS011;70852;49.908;8.126;2024-01-06T02:56:11;2.50;;;1.20;;
81396;SDS011;70852;49.908;8.126;2024-01-06T02:58:36;2.97;;;1.13;;
81396;SDS011;70852;49.908;8.126;2024-01-06T03:01:07;1.90;;;0.88;;
81396;SDS011;70852;49.908;8.126;2024-01-06T03:06:02;4.10;;;0.98;;
81396;SDS011;70852;49.908;8.126;2024-01-06T03:08:32;4.05;;;1.20;;
81396;SDS011;70852;49.908;8.126;2024-01-06T03:10:57;3.47;;;1.27;;
81396;SDS011;70852;49.908;8.126;2024-01-06T03:13:23;3.58;;;1.17;;
81396;SDS011;70852;49.908;8.126;2024-01-06T03:15:48;1.77;;;0.70;;
81396;SDS011;70852;49.908;8.126;2024-01-06T03:18:16;3.47;;;1.38;;
81396;SDS011;70852;49.908;8.126;2024-01-06T03:20:45;3.33;;;1.27;;
81396;SDS011;70852;49.908;8.126;2024-01-06T03:25:38;3.07;;;1.20;;
81396;SDS011;70852;49.908;8.126;2024-01-06T03:28:06;3.33;;;1.08;;
81396;SDS011;70852;49.908;8.126;2024-01-06T03:30:33;2.17;;;0.68;;
81396;SDS011;70852;49.908;8.126;2024-01-06T03:32:59;2.30;;;0.80;;
81396;SDS011;70852;49.908;8.126;2024-01-06T03:35:26;2.97;;;1.10;;
81396;SDS011;70852;49.908;8.126;2024-01-06T03:37:51;3.05;;;0.90;;
81396;SDS011;70852;49.908;8.126;2024-01-06T03:40:19;2.47;;;1.08;;
81396;SDS011;70852;49.908;8.126;2024-01-06T03:42:46;2.20;;;1.13;;
81396;SDS011;70852;49.908;8.126;2024-01-06T03:45:12;3.15;;;1.20;;
81396;SDS011;70852;49.908;8.126;2024-01-06T03:47:40;4.47;;;1.23;;
81396;SDS011;70852;49.908;8.126;2024-01-06T03:50:08;3.70;;;1.30;;
81396;SDS011;70852;49.908;8.126;2024-01-06T03:55:03;3.95;;;0.90;;
81396;SDS011;70852;49.908;8.126;2024-01-06T03:57:32;3.65;;;1.30;;
81396;SDS011;70852;49.908;8.126;2024-01-06T03:59:57;3.00;;;1.10;;
81396;SDS011;70852;49.908;8.126;2024-01-06T04:02:26;2.72;;;1.08;;
81396;SDS011;70852;49.908;8.126;2024-01-06T04:04:53;2.60;;;1.00;;
81396;SDS011;70852;49.908;8.126;2024-01-06T04:07:18;4.07;;;1.50;;
81396;SDS011;70852;49.908;8.126;2024-01-06T04:09:44;3.25;;;1.15;;
81396;SDS011;70852;49.908;8.126;2024-01-06T04:12:14;3.97;;;1.40;;
81396;SDS011;70852;49.908;8.126;2024-01-06T04:14:41;3.70;;;1.38;;
81396;SDS011;70852;49.908;8.126;2024-01-06T04:17:07;6.18;;;1.10;;
81396;SDS011;70852;49.908;8.126;2024-01-06T04:19:34;1.70;;;1.05;;
81396;SDS011;70852;49.908;8.126;2024-01-06T04:21:59;2.40;;;0.95;;
81396;SDS011;70852;49.908;8.126;2024-01-06T04:24:27;2.38;;;0.90;;
81396;SDS011;70852;49.908;8.126;2024-01-06T04:26:55;2.78;;;1.10;;
81396;SDS011;70852;49.908;8.126;2024-01-06T04:29:20;2.58;;;1.10;;
81396;SDS011;70852;49.908;8.126;2024-01-06T04:31:45;5.43;;;1.17;;
81396;SDS011;70852;49.908;8.126;2024-01-06T04:34:11;3.75;;;1.30;;
81396;SDS011;70852;49.908;8.126;2024-01-06T04:36:41;3.38;;;1.08;;
81396;SDS011;70852;49.908;8.126;2024-01-06T04:39:09;2.53;;;1.30;;
81396;SDS011;70852;49.908;8.126;2024-01-06T04:41:34;4.38;;;1.20;;
81396;SDS011;70852;49.908;8.126;2024-01-06T04:44:02;3.85;;;1.02;;
81396;SDS011;70852;49.908;8.126;2024-01-06T04:46:29;3.70;;;1.45;;
81396;SDS011;70852;49.908;8.126;2024-01-06T04:48:55;3.15;;;1.00;;
81396;SDS011;70852;49.908;8.126;2024-01-06T04:51:23;2.53;;;0.82;;
81396;SDS011;70852;49.908;8.126;2024-01-06T04:53:51;4.75;;;1.20;;
81396;SDS011;70852;49.908;8.126;2024-01-06T04:56:16;3.65;;;1.10;;
81396;SDS011;70852;49.908;8.126;2024-01-06T04:58:41;3.08;;;1.63;;
81396;SDS011;70852;49.908;8.126;2024-01-06T05:01:06;1.73;;;0.93;;
81396;SDS011;70852;49.908;8.126;2024-01-06T05:03:35;6.30;;;1.73;;
81396;SDS011;70852;49.908;8.126;2024-01-06T05:06:03;3.60;;;1.20;;
81396;SDS011;70852;49.908;8.126;2024-01-06T05:08:29;2.22;;;1.00;;
81396;SDS011;70852;49.908;8.126;2024-01-06T05:10:55;2.25;;;0.88;;
81396;SDS011;70852;49.908;8.126;2024-01-06T05:13:21;2.08;;;0.85;;
81396;SDS011;70852;49.908;8.126;2024-01-06T05:15:48;3.97;;;1.30;;
81396;SDS011;70852;49.908;8.126;2024-01-06T05:18:16;2.97;;;1.52;;
81396;SDS011;70852;49.908;8.126;2024-01-06T05:20:43;3.70;;;1.42;;
81396;SDS011;70852;49.908;8.126;2024-01-06T05:23:09;3.17;;;1.17;;
81396;SDS011;70852;49.908;8.126;2024-01-06T05:25:41;2.50;;;1.10;;
81396;SDS011;70852;49.908;8.126;2024-01-06T05:28:09;3.75;;;1.30;;
81396;SDS011;70852;49.908;8.126;2024-01-06T05:30:36;2.53;;;1.30;;
81396;SDS011;70852;49.908;8.126;2024-01-06T05:33:04;3.75;;;1.30;;
81396;SDS011;70852;49.908;8.126;2024-01-06T05:35:29;4.05;;;1.58;;
81396;SDS011;70852;49.908;8.126;2024-01-06T05:37:57;3.45;;;1.27;;
81396;SDS011;70852;49.908;8.126;2024-01-06T05:40:25;2.80;;;1.25;;
81396;SDS011;70852;49.908;8.126;2024-01-06T05:42:52;2.60;;;1.15;;
81396;SDS011;70852;49.908;8.126;2024-01-06T05:45:20;2.90;;;1.27;;
81396;SDS011;70852;49.908;8.126;2024-01-06T05:47:50;3.50;;;1.42;;
81396;SDS011;70852;49.908;8.126;2024-01-06T05:50:18;3.55;;;1.20;;
81396;SDS011;70852;49.908;8.126;2024-01-06T05:52:44;4.72;;;1.20;;
81396;SDS011;70852;49.908;8.126;2024-01-06T05:55:11;5.13;;;1.77;;
81396;SDS011;70852;49.908;8.126;2024-01-06T05:57:36;2.95;;;1.40;;
81396;SDS011;70852;49.908;8.126;2024-01-06T06:00:02;2.50;;;1.27;;
81396;SDS011;70852;49.908;8.126;2024-01-06T06:02:27;4.72;;;1.65;;
81396;SDS011;70852;49.908;8.126;2024-01-06T06:04:53;2.75;;;1.38;;
81396;SDS011;70852;49.908;8.126;2024-01-06T06:07:18;5.05;;;1.77;;
81396;SDS011;70852;49.908;8.126;2024-01-06T06:09:48;2.72;;;1.40;;
81396;SDS011;70852;49.908;8.126;2024-01-06T06:12:18;5.53;;;1.40;;
81396;SDS011;70852;49.908;8.126;2024-01-06T06:14:43;4.03;;;1.52;;
81396;SDS011;70852;49.908;8.126;2024-01-06T06:17:10;4.28;;;1.58;;
81396;SDS011;70852;49.908;8.126;2024-01-06T06:19:38;4.15;;;1.70;;
81396;SDS011;70852;49.908;8.126;2024-01-06T06:22:04;3.70;;;1.40;;
81396;SDS011;70852;49.908;8.126;2024-01-06T06:24:32;4.30;;;1.98;;
81396;SDS011;70852;49.908;8.126;2024-01-06T06:26:57;5.53;;;1.55;;
81396;SDS011;70852;49.908;8.126;2024-01-06T06:29:22;3.20;;;1.55;;
81396;SDS011;70852;49.908;8.126;2024-01-06T06:31:50;5.93;;;1.40;;
81396;SDS011;70852;49.908;8.126;2024-01-06T06:34:15;4.28;;;1.40;;
81396;SDS011;70852;49.908;8.126;2024-01-06T06:36:43;5.65;;;1.27;;
81396;SDS011;70852;49.908;8.126;2024-01-06T06:39:08;5.65;;;1.35;;
81396;SDS011;70852;49.908;8.126;2024-01-06T06:41:34;5.38;;;1.70;;
81396;SDS011;70852;49.908;8.126;2024-01-06T06:43:59;3.05;;;1.30;;
81396;SDS011;70852;49.908;8.126;2024-01-06T06:46:27;4.55;;;2.50;;
81396;SDS011;70852;49.908;8.126;2024-01-06T06:48:52;8.48;;;3.88;;
81396;SDS011;70852;49.908;8.126;2024-01-06T06:51:20;7.07;;;2.80;;
81396;SDS011;70852;49.908;8.126;2024-01-06T06:53:49;5.43;;;2.15;;
81396;SDS011;70852;49.908;8.126;2024-01-06T06:58:44;4.20;;;1.63;;
81396;SDS011;70852;49.908;8.126;2024-01-06T07:01:15;3.65;;;1.45;;
81396;SDS011;70852;49.908;8.126;2024-01-06T07:03:41;4.30;;;1.50;;
81396;SDS011;70852;49.908;8.126;2024-01-06T07:06:07;3.50;;;1.40;;
81396;SDS011;70852;49.908;8.126;2024-01-06T07:08:32;3.03;;;1.55;;
81396;SDS011;70852;49.908;8.126;2024-01-06T07:11:00;4.25;;;1.60;;
81396;SDS011;70852;49.908;8.126;2024-01-06T07:13:25;4.13;;;1.60;;
81396;SDS011;70852;49.908;8.126;2024-01-06T07:15:53;3.80;;;1.50;;
81396;SDS011;70852;49.908;8.126;2024-01-06T07:18:20;2.33;;;1.33;;
81396;SDS011;70852;49.908;8.126;2024-01-06T07:20:49;4.90;;;1.40;;
81396;SDS011;70852;49.908;8.126;2024-01-06T07:23:17;3.40;;;1.50;;
81396;SDS011;70852;49.908;8.126;2024-01-06T07:25:42;4.68;;;2.00;;
81396;SDS011;70852;49.908;8.126;2024-01-06T07:28:08;5.07;;;1.88;;
81396;SDS011;70852;49.908;8.126;2024-01-06T07:30:34;3.67;;;1.80;;
81396;SDS011;70852;49.908;8.126;2024-01-06T07:32:59;7.25;;;1.63;;
81396;SDS011;70852;49.908;8.126;2024-01-06T07:35:25;3.60;;;1.70;;
81396;SDS011;70852;49.908;8.126;2024-01-06T07:37:50;3.97;;;1.60;;
81396;SDS011;70852;49.908;8.126;2024-01-06T07:40:18;4.43;;;1.25;;
81396;SDS011;70852;49.908;8.126;2024-01-06T07:42:43;4.63;;;1.70;;
81396;SDS011;70852;49.908;8.126;2024-01-06T07:45:09;3.55;;;1.50;;
81396;SDS011;70852;49.908;8.126;2024-01-06T07:47:37;3.20;;;1.52;;
81396;SDS011;70852;49.908;8.126;2024-01-06T07:50:08;5.50;;;1.80;;
81396;SDS011;70852;49.908;8.126;2024-01-06T07:52:34;4.00;;;1.52;;
81396;SDS011;70852;49.908;8.126;2024-01-06T07:54:59;2.92;;;1.40;;
81396;SDS011;70852;49.908;8.126;2024-01-06T07:57:25;4.68;;;1.73;;
81396;SDS011;70852;49.908;8.126;2024-01-06T07:59:52;3.17;;;1.30;;
81396;SDS011;70852;49.908;8.126;2024-01-06T08:02:20;3.53;;;1.60;;
81396;SDS011;70852;49.908;8.126;2024-01-06T08:04:45;2.67;;;1.50;;
81396;SDS011;70852;49.908;8.126;2024-01-06T08:07:10;3.45;;;1.55;;
81396;SDS011;70852;49.908;8.126;2024-01-06T08:09:36;3.95;;;1.40;;
81396;SDS011;70852;49.908;8.126;2024-01-06T08:12:01;3.10;;;1.55;;
81396;SDS011;70852;49.908;8.126;2024-01-06T08:14:29;6.22;;;1.98;;
81396;SDS011;70852;49.908;8.126;2024-01-06T08:16:57;4.00;;;1.75;;
81396;SDS011;70852;49.908;8.126;2024-01-06T08:19:24;4.45;;;1.65;;
81396;SDS011;70852;49.908;8.126;2024-01-06T08:21:50;4.63;;;1.75;;
81396;SDS011;70852;49.908;8.126;2024-01-06T08:24:18;2.65;;;1.38;;
81396;SDS011;70852;49.908;8.126;2024-01-06T08:26:43;3.28;;;1.65;;
81396;SDS011;70852;49.908;8.126;2024-01-06T08:29:09;5.95;;;1.50;;
81396;SDS011;70852;49.908;8.126;2024-01-06T08:31:35;4.90;;;1.60;;
81396;SDS011;70852;49.908;8.126;2024-01-06T08:34:02;2.97;;;1.67;;
81396;SDS011;70852;49.908;8.126;2024-01-06T08:36:30;4.80;;;1.60;;
81396;SDS011;70852;49.908;8.126;2024-01-06T08:38:55;3.28;;;1.60;;
81396;SDS011;70852;49.908;8.126;2024-01-06T08:41:21;4.30;;;1.40;;
81396;SDS011;70852;49.908;8.126;2024-01-06T08:43:46;3.28;;;1.48;;
81396;SDS011;70852;49.908;8.126;2024-01-06T08:46:11;3.03;;;1.60;;
81396;SDS011;70852;49.908;8.126;2024-01-06T08:48:36;3.63;;;1.92;;
81396;SDS011;70852;49.908;8.126;2024-01-06T08:51:02;4.88;;;2.10;;
81396;SDS011;70852;49.908;8.126;2024-01-06T08:53:27;4.55;;;1.80;;
81396;SDS011;70852;49.908;8.126;2024-01-06T08:55:53;6.05;;;1.75;;
81396;SDS011;70852;49.908;8.126;2024-01-06T08:58:20;7.07;;;1.92;;
81396;SDS011;70852;49.908;8.126;2024-01-06T09:00:48;3.53;;;1.80;;
81396;SDS011;70852;49.908;8.126;2024-01-06T09:03:18;5.50;;;1.80;;
81396;SDS011;70852;49.908;8.126;2024-01-06T09:05:49;4.18;;;1.73;;
81396;SDS011;70852;49.908;8.126;2024-01-06T09:08:17;5.43;;;1.83;;
81396;SDS011;70852;49.908;8.126;2024-01-06T09:10:43;5.15;;;1.65;;
81396;SDS011;70852;49.908;8.126;2024-01-06T09:13:10;4.35;;;1.75;;
81396;SDS011;70852;49.908;8.126;2024-01-06T09:15:38;5.15;;;1.80;;
81396;SDS011;70852;49.908;8.126;2024-01-06T09:18:03;3.40;;;1.83;;
81396;SDS011;70852;49.908;8.126;2024-01-06T09:20:31;5.07;;;1.90;;
81396;SDS011;70852;49.908;8.126;2024-01-06T09:22:56;3.63;;;1.70;;
81396;SDS011;70852;49.908;8.126;2024-01-06T09:25:22;3.78;;;1.90;;
81396;SDS011;70852;49.908;8.126;2024-01-06T09:27:49;3.70;;;1.60;;
81396;SDS011;70852;49.908;8.126;2024-01-06T09:30:16;4.05;;;2.13;;
81396;SDS011;70852;49.908;8.126;2024-01-06T09:32:43;2.95;;;1.70;;
81396;SDS011;70852;49.908;8.126;2024-01-06T09:35:11;3.63;;;1.90;;
81396;SDS011;70852;49.908;8.126;2024-01-06T09:37:36;3.35;;;1.90;;
81396;SDS011;70852;49.908;8.126;2024-01-06T09:42:38;3.80;;;1.70;;
81396;SDS011;70852;49.908;8.126;2024-01-06T09:45:04;2.75;;;1.52;;
81396;SDS011;70852;49.908;8.126;2024-01-06T09:47:30;3.60;;;1.70;;
81396;SDS011;70852;49.908;8.126;2024-01-06T09:50:00;4.47;;;1.95;;
81396;SDS011;70852;49.908;8.126;2024-01-06T09:52:26;3.30;;;1.48;;
81396;SDS011;70852;49.908;8.126;2024-01-06T09:54:57;5.03;;;1.63;;
81396;SDS011;70852;49.908;8.126;2024-01-06T09:57:25;5.75;;;1.90;;
81396;SDS011;70852;49.908;8.126;2024-01-06T09:59:53;5.20;;;1.83;;
81396;SDS011;70852;49.908;8.126;2024-01-06T10:02:23;4.00;;;1.90;;
81396;SDS011;70852;49.908;8.126;2024-01-06T10:04:52;4.75;;;2.10;;
81396;SDS011;70852;49.908;8.126;2024-01-06T10:07:22;3.50;;;1.75;;
81396;SDS011;70852;49.908;8.126;2024-01-06T10:09:49;4.05;;;2.00;;
81396;SDS011;70852;49.908;8.126;2024-01-06T10:12:17;3.83;;;2.03;;
81396;SDS011;70852;49.908;8.126;2024-01-06T10:14:50;3.05;;;1.85;;
81396;SDS011;70852;49.908;8.126;2024-01-06T10:17:17;5.45;;;1.98;;
81396;SDS011;70852;49.908;8.126;2024-01-06T10:19:45;4.40;;;2.00;;
81396;SDS011;70852;49.908;8.126;2024-01-06T10:22:11;3.53;;;1.70;;
81396;SDS011;70852;49.908;8.126;2024-01-06T10:24:37;3.60;;;1.70;;
81396;SDS011;70852;49.908;8.126;2024-01-06T10:27:03;4.88;;;1.83;;
81396;SDS011;70852;49.908;8.126;2024-01-06T10:29:29;4.63;;;2.17;;
81396;SDS011;70852;49.908;8.126;2024-01-06T10:31:54;6.15;;;2.55;;
81396;SDS011;70852;49.908;8.126;2024-01-06T10:34:20;6.57;;;2.28;;
81396;SDS011;70852;49.908;8.126;2024-01-06T10:36:48;4.80;;;2.35;;
81396;SDS011;70852;49.908;8.126;2024-01-06T10:39:14;4.82;;;2.10;;
81396;SDS011;70852;49.908;8.126;2024-01-06T10:41:43;6.30;;;2.70;;
81396;SDS011;70852;49.908;8.126;2024-01-06T10:44:14;4.03;;;2.08;;
81396;SDS011;70852;49.908;8.126;2024-01-06T10:46:40;5.85;;;2.22;;
81396;SDS011;70852;49.908;8.126;2024-01-06T10:49:08;4.78;;;2.22;;
81396;SDS011;70852;49.908;8.126;2024-01-06T10:51:39;5.57;;;2.20;;
81396;SDS011;70852;49.908;8.126;2024-01-06T10:54:11;5.57;;;2.30;;
81396;SDS011;70852;49.908;8.126;2024-01-06T10:56:41;4.95;;;2.30;;
81396;SDS011;70852;49.908;8.126;2024-01-06T10:59:08;4.20;;;2.03;;
81396;SDS011;70852;49.908;8.126;2024-01-06T11:01:33;3.42;;;1.98;;
81396;SDS011;70852;49.908;8.126;2024-01-06T11:04:02;4.32;;;1.95;;
81396;SDS011;70852;49.908;8.126;2024-01-06T11:06:31;3.90;;;2.00;;
81396;SDS011;70852;49.908;8.126;2024-01-06T11:11:40;4.63;;;2.28;;
81396;SDS011;70852;49.908;8.126;2024-01-06T11:16:53;3.50;;;1.83;;
81396;SDS011;70852;49.908;8.126;2024-01-06T11:24:47;4.18;;;2.13;;
81396;SDS011;70852;49.908;8.126;2024-01-06T11:27:23;4.50;;;1.85;;
81396;SDS011;70852;49.908;8.126;2024-01-06T11:29:54;4.15;;;2.10;;
81396;SDS011;70852;49.908;8.126;2024-01-06T11:32:24;4.00;;;1.90;;
81396;SDS011;70852;49.908;8.126;2024-01-06T11:34:56;4.47;;;2.28;;
81396;SDS011;70852;49.908;8.126;2024-01-06T11:37:50;5.15;;;1.85;;
81396;SDS011;70852;49.908;8.126;2024-01-06T11:42:57;5.05;;;2.10;;
81396;SDS011;70852;49.908;8.126;2024-01-06T11:45:35;4.93;;;2.00;;
81396;SDS011;70852;49.908;8.126;2024-01-06T11:48:05;4.82;;;2.38;;
81396;SDS011;70852;49.908;8.126;2024-01-06T11:50:33;5.15;;;2.03;;
81396;SDS011;70852;49.908;8.126;2024-01-06T11:53:01;4.40;;;2.22;;
81396;SDS011;70852;49.908;8.126;2024-01-06T11:55:30;4.13;;;2.08;;
81396;SDS011;70852;49.908;8.126;2024-01-06T11:58:01;4.82;;;2.00;;
81396;SDS011;70852;49.908;8.126;2024-01-06T12:00:34;6.13;;;2.25;;
81396;SDS011;70852;49.908;8.126;2024-01-06T12:03:02;4.72;;;2.25;;
81396;SDS011;70852;49.908;8.126;2024-01-06T12:05:27;5.32;;;2.28;;
81396;SDS011;70852;49.908;8.126;2024-01-06T12:07:54;3.53;;;1.95;;
81396;SDS011;70852;49.908;8.126;2024-01-06T12:10:29;45.70;;;9.63;;
81396;SDS011;70852;49.908;8.126;2024-01-06T12:13:01;22.40;;;7.35;;
81396;SDS011;70852;49.908;8.126;2024-01-06T12:15:28;8.63;;;2.95;;
81396;SDS011;70852;49.908;8.126;2024-01-06T12:20:26;6.47;;;2.60;;
81396;SDS011;70852;49.908;8.126;2024-01-06T12:22:54;5.18;;;2.35;;
81396;SDS011;70852;49.908;8.126;2024-01-06T12:25:22;4.15;;;2.20;;
81396;SDS011;70852;49.908;8.126;2024-01-06T12:27:48;9.07;;;3.08;;
81396;SDS011;70852;49.908;8.126;2024-01-06T12:30:14;3.72;;;2.10;;
81396;SDS011;70852;49.908;8.126;2024-01-06T12:32:42;6.15;;;2.45;;
81396;SDS011;70852;49.908;8.126;2024-01-06T12:35:10;4.35;;;2.30;;
81396;SDS011;70852;49.908;8.126;2024-01-06T12:37:36;8.90;;;3.75;;
81396;SDS011;70852;49.908;8.126;2024-01-06T12:40:02;15.32;;;5.57;;
81396;SDS011;70852;49.908;8.126;2024-01-06T12:42:28;9.45;;;3.78;;
81396;SDS011;70852;49.908;8.126;2024-01-06T12:44:55;11.13;;;4.95;;
81396;SDS011;70852;49.908;8.126;2024-01-06T12:47:20;7.15;;;3.25;;
81396;SDS011;70852;49.908;8.126;2024-01-06T12:49:49;7.93;;;3.53;;
81396;SDS011;70852;49.908;8.126;2024-01-06T12:52:14;5.03;;;2.42;;
81396;SDS011;70852;49.908;8.126;2024-01-06T12:54:39;5.30;;;2.60;;
81396;SDS011;70852;49.908;8.126;2024-01-06T12:57:05;10.32;;;4.45;;
81396;SDS011;70852;49.908;8.126;2024-01-06T12:59:31;6.57;;;3.05;;
81396;SDS011;70852;49.908;8.126;2024-01-06T13:01:58;5.20;;;2.40;;
81396;SDS011;70852;49.908;8.126;2024-01-06T13:04:24;10.00;;;4.15;;
81396;SDS011;70852;49.908;8.126;2024-01-06T13:06:54;6.50;;;2.90;;
81396;SDS011;70852;49.908;8.126;2024-01-06T13:09:20;7.40;;;3.50;;
81396;SDS011;70852;49.908;8.126;2024-01-06T13:11:48;9.95;;;3.90;;
81396;SDS011;70852;49.908;8.126;2024-01-06T13:14:16;8.75;;;3.72;;
81396;SDS011;70852;49.908;8.126;2024-01-06T13:16:44;6.53;;;3.10;;
81396;SDS011;70852;49.908;8.126;2024-01-06T13:19:14;4.90;;;2.03;;
81396;SDS011;70852;49.908;8.126;2024-01-06T13:21:40;7.82;;;2.88;;
81396;SDS011;70852;49.908;8.126;2024-01-06T13:24:10;6.35;;;3.03;;
81396;SDS011;70852;49.908;8.126;2024-01-06T13:26:37;4.55;;;2.33;;
81396;SDS011;70852;49.908;8.126;2024-01-06T13:29:03;3.95;;;1.95;;
81396;SDS011;70852;49.908;8.126;2024-01-06T13:31:28;4.43;;;1.92;;
81396;SDS011;70852;49.908;8.126;2024-01-06T13:33:54;3.30;;;1.85;;
81396;SDS011;70852;49.908;8.126;2024-01-06T13:36:21;3.78;;;1.90;;
81396;SDS011;70852;49.908;8.126;2024-01-06T13:38:49;4.78;;;1.88;;
81396;SDS011;70852;49.908;8.126;2024-01-06T13:41:15;5.70;;;2.35;;
81396;SDS011;70852;49.908;8.126;2024-01-06T13:43:43;4.18;;;2.40;;
81396;SDS011;70852;49.908;8.126;2024-01-06T13:46:11;7.40;;;2.10;;
81396;SDS011;70852;49.908;8.126;2024-01-06T13:48:39;5.88;;;2.30;;
81396;SDS011;70852;49.908;8.126;2024-01-06T13:51:05;5.97;;;2.47;;
81396;SDS011;70852;49.908;8.126;2024-01-06T13:53:31;5.10;;;2.60;;
81396;SDS011;70852;49.908;8.126;2024-01-06T13:55:56;5.68;;;2.25;;
81396;SDS011;70852;49.908;8.126;2024-01-06T13:58:24;4.03;;;2.08;;
81396;SDS011;70852;49.908;8.126;2024-01-06T14:00:49;4.90;;;2.25;;
81396;SDS011;70852;49.908;8.126;2024-01-06T14:03:15;5.68;;;2.13;;
81396;SDS011;70852;49.908;8.126;2024-01-06T14:05:40;14.73;;;2.40;;
81396;SDS011;70852;49.908;8.126;2024-01-06T14:08:06;4.55;;;2.30;;
81396;SDS011;70852;49.908;8.126;2024-01-06T14:10:31;4.53;;;2.47;;
81396;SDS011;70852;49.908;8.126;2024-01-06T14:12:57;6.32;;;2.50;;
81396;SDS011;70852;49.908;8.126;2024-01-06T14:15:22;6.15;;;2.45;;
81396;SDS011;70852;49.908;8.126;2024-01-06T14:17:48;6.82;;;2.65;;
81396;SDS011;70852;49.908;8.126;2024-01-06T14:20:16;6.07;;;3.00;;
81396;SDS011;70852;49.908;8.126;2024-01-06T14:22:47;5.15;;;2.60;;
81396;SDS011;70852;49.908;8.126;2024-01-06T14:25:18;6.60;;;2.88;;
81396;SDS011;70852;49.908;8.126;2024-01-06T14:27:46;6.03;;;2.80;;
81396;SDS011;70852;49.908;8.126;2024-01-06T14:30:11;5.70;;;2.97;;
81396;SDS011;70852;49.908;8.126;2024-01-06T14:32:36;8.43;;;3.33;;
81396;SDS011;70852;49.908;8.126;2024-01-06T14:35:05;9.10;;;4.03;;
81396;SDS011;70852;49.908;8.126;2024-01-06T14:37:36;7.00;;;3.60;;
81396;SDS011;70852;49.908;8.126;2024-01-06T14:40:01;6.43;;;3.55;;
81396;SDS011;70852;49.908;8.126;2024-01-06T14:42:30;8.27;;;3.72;;
81396;SDS011;70852;49.908;8.126;2024-01-06T14:44:57;8.02;;;3.38;;
81396;SDS011;70852;49.908;8.126;2024-01-06T14:47:22;7.22;;;3.28;;
81396;SDS011;70852;49.908;8.126;2024-01-06T14:49:50;7.05;;;3.58;;
81396;SDS011;70852;49.908;8.126;2024-01-06T14:52:15;6.95;;;3.10;;
81396;SDS011;70852;49.908;8.126;2024-01-06T14:54:41;5.85;;;3.60;;
81396;SDS011;70852;49.908;8.126;2024-01-06T14:57:07;6.55;;;3.10;;
81396;SDS011;70852;49.908;8.126;2024-01-06T14:59:33;7.55;;;3.47;;
81396;SDS011;70852;49.908;8.126;2024-01-06T15:02:01;6.53;;;3.30;;
81396;SDS011;70852;49.908;8.126;2024-01-06T15:04:27;5.30;;;2.90;;
81396;SDS011;70852;49.908;8.126;2024-01-06T15:06:54;6.07;;;3.08;;
81396;SDS011;70852;49.908;8.126;2024-01-06T15:09:20;5.90;;;2.78;;
81396;SDS011;70852;49.908;8.126;2024-01-06T15:11:46;6.20;;;3.17;;
81396;SDS011;70852;49.908;8.126;2024-01-06T15:14:14;7.30;;;3.13;;
81396;SDS011;70852;49.908;8.126;2024-01-06T15:16:39;6.30;;;3.13;;
81396;SDS011;70852;49.908;8.126;2024-01-06T15:19:04;5.68;;;3.22;;